Xoxocotlan International, Mexico

8:45 AM CDT on August 29, 2015 (GMT -0500)
Xoxocotlan International | | Change Station
CLOSE
Current Station
Airport
Location: Oaxaca,
Elevation: 5013 ft
Nearby Weather Stations

Elev 5013 ft 16.97 °N, 96.73 °W | Updated 1 hour ago

Overcast
Overcast
64 °F
Feels Like 64 °F
N
6
Wind Variable Wind from North

Today
High -- | Low -- °F
--% Chance of Precip.
Yesterday
High -- | Low -- °F
Precip. -- in
7:12 AM 7:42 PM
Full, 100% visible
Pressure 30.21 in
Visibility 7.0 miles
Clouds Few 1500 ft
Mostly Cloudy 10000 ft
Overcast 20000 ft
Dew Point 59 °F
Humidity 83%
Rainfall 0.00 in
Snow Depth Not available.
UV 0 out of 12
Pollen Not available.
Air Quality Not available.
Flu Activity Not available.
METAR MMOX 291245Z 36005KT 7SM FEW015 BKN100 OVC200 18/15 A3021 RMK 8/737 LWR ST N S
Pressure 30.21 in
Visibility 7.0 miles
Clouds Few 1500 ft
Mostly Cloudy 10000 ft
Overcast 20000 ft
Dew Point 59 °F
Humidity 83%
Rainfall 0.00 in
Snow Depth Not available.
UV 0 out of 12
Pollen Not available.
Air Quality Not available.
Flu Activity Not available.
METAR MMOX 291245Z 36005KT 7SM FEW015 BKN100 OVC200 18/15 A3021 RMK 8/737 LWR ST N S

10-Day Weather Forecast

×

Almanac

Astronomy

Aug. 29, 2015 Rise Set
Actual Time
Civil Twilight
Nautical Twilight
Astronomical Twilight
Moon
Length of Visible Light
Length of Day
Tomorrow will be .
, % of the Moon is Illuminated

Today's Extremes

Country Highs Country Lows

Community

WunderPhotos

Upload Photos

1,850,686 photos uploaded!

WunderBlogs® & News

Nearby

Air Quality

  Air Quality AQ Index Pollutant
Not available.

Snow Depth

Station Depth Elevation

Earthquake Activity

City Distance Mag. Time & Date
Minimum magnitude displayed is 2.5.

Coastal Water Temperatures

Place Temperature

Stations

Nearby Weather Stations

Station Location Temp. Windchill Dew Point Humidity Wind Precip. Elev Updated Type